createdAt,value
2018-08-09T12:40:30.944Z,40.14
2018-08-09T12:43:02.352Z,38.86
2018-08-09T12:45:33.633Z,38.38
2018-08-09T12:48:04.946Z,38.49
2018-08-09T12:50:36.270Z,37.29
2018-08-09T12:53:07.839Z,37.02
2018-08-09T12:55:39.066Z,36.61
2018-08-09T12:58:10.278Z,36.63
2018-08-09T13:00:41.591Z,36.48
2018-08-09T13:03:12.914Z,35.43
2018-08-09T13:05:44.369Z,34.82
2018-08-09T13:08:15.745Z,35.01
2018-08-09T13:10:46.969Z,34.86
2018-08-09T13:13:18.212Z,35.28
2018-08-09T13:15:49.438Z,34.89
2018-08-09T13:18:20.791Z,35.10
2018-08-09T13:20:51.994Z,34.84
2018-08-09T13:23:23.194Z,35.22
2018-08-09T13:25:54.391Z,35.19
2018-08-09T13:28:25.638Z,34.92
2018-08-09T13:30:56.908Z,35.20
2018-08-09T13:33:28.251Z,35.51
2018-08-09T13:35:59.454Z,36.61
2018-08-09T13:38:31.570Z,37.19
2018-08-09T13:41:02.834Z,37.20
2018-08-09T13:43:34.171Z,37.51
2018-08-09T13:46:05.523Z,37.41
2018-08-09T13:48:36.877Z,38.21
2018-08-09T13:51:08.098Z,38.04
2018-08-09T13:53:39.287Z,38.36
2018-08-09T13:56:10.542Z,38.90
2018-08-09T13:58:41.866Z,39.08
2018-08-09T14:01:13.082Z,39.20
2018-08-09T14:03:44.575Z,40.02
2018-08-09T14:06:15.855Z,39.82
2018-08-09T14:08:47.074Z,40.53
2018-08-09T14:11:18.382Z,40.18
2018-08-09T14:13:49.647Z,40.32
2018-08-09T14:16:20.938Z,40.76
2018-08-09T14:18:52.186Z,42.06
2018-08-09T14:21:24.339Z,42.57
2018-08-09T14:23:55.547Z,43.14
2018-08-09T14:26:26.830Z,43.87
2018-08-09T14:28:58.058Z,44.28
2018-08-09T14:31:29.300Z,45.36
2018-08-09T14:34:00.566Z,45.25
2018-08-09T14:36:31.779Z,46.01
2018-08-09T14:41:44.834Z,45.57
2018-08-09T14:44:16.052Z,45.85
2018-08-09T14:46:47.371Z,45.26
2018-08-09T14:49:18.746Z,45.87
2018-08-09T14:51:50.000Z,45.88
2018-08-09T14:54:21.263Z,45.39
2018-08-09T14:56:52.604Z,45.54
2018-08-09T14:59:25.774Z,45.48
2018-08-09T15:01:58.442Z,45.84
2018-08-09T15:04:29.653Z,45.44
2018-08-09T15:07:00.919Z,45.10
2018-08-09T15:09:32.186Z,45.07
2018-08-09T15:12:03.796Z,45.21
2018-08-09T15:14:35.034Z,44.96
2018-08-09T15:17:06.255Z,45.07
2018-08-09T15:19:37.459Z,46.00
2018-08-09T15:22:09.322Z,46.30
2018-08-09T15:24:40.540Z,46.23
2018-08-09T15:27:11.827Z,45.85
2018-08-09T15:29:44.163Z,46.36
2018-08-09T15:32:16.980Z,45.64
2018-08-09T15:34:48.290Z,45.77
2018-08-09T15:37:19.559Z,46.06
2018-08-09T15:39:50.774Z,46.02
2018-08-09T15:42:22.072Z,45.78
2018-08-09T15:44:53.399Z,46.15
2018-08-09T15:47:24.713Z,45.72
2018-08-09T15:49:55.887Z,45.80
2018-08-09T15:52:27.254Z,46.17
2018-08-09T15:54:58.447Z,46.34
2018-08-09T15:57:29.752Z,46.24
2018-08-09T16:00:00.958Z,46.07
2018-08-09T16:02:32.764Z,45.40
2018-08-09T16:05:04.218Z,45.48
2018-08-09T16:07:35.734Z,45.61
2018-08-09T16:10:13.446Z,45.07
2018-08-09T16:12:45.002Z,45.09
2018-08-09T16:15:18.066Z,44.53
2018-08-09T16:17:50.063Z,44.25
2018-08-09T16:20:21.387Z,43.63
2018-08-09T16:22:52.601Z,43.86
2018-08-09T16:25:23.862Z,44.26
2018-08-09T16:27:55.190Z,44.32
2018-08-09T16:30:27.182Z,43.82
2018-08-09T16:32:59.115Z,43.64
2018-08-09T16:35:30.396Z,44.19
2018-08-09T16:38:01.660Z,44.83
2018-08-09T16:40:33.125Z,44.52
2018-08-09T16:43:04.346Z,45.01
2018-08-09T16:45:35.762Z,44.96
2018-08-09T16:48:07.920Z,45.47
2018-08-09T16:51:10.668Z,45.02
2018-08-09T16:53:42.095Z,45.31
2018-08-09T16:56:13.917Z,44.68
2018-08-09T16:58:45.361Z,45.27
2018-08-09T17:01:16.596Z,44.92
2018-08-09T17:03:48.691Z,44.70
2018-08-09T17:06:20.436Z,44.36
2018-08-09T17:08:52.253Z,44.51
2018-08-09T17:11:23.732Z,44.08
2018-08-09T17:13:55.303Z,43.89
2018-08-09T17:43:00.222Z,47.23
2018-08-09T17:47:46.706Z,47.84
2018-08-09T17:50:18.073Z,48.22
2018-08-09T17:52:50.964Z,48.43
2018-08-09T17:55:22.448Z,48.57
2018-08-09T17:57:53.819Z,47.48
2018-08-09T18:00:28.405Z,47.29
2018-08-09T18:02:59.875Z,47.42
2018-08-09T18:05:31.198Z,47.17
2018-08-09T18:08:02.510Z,47.04
2018-08-09T18:10:35.599Z,47.33
2018-08-09T18:13:06.980Z,46.50
2018-08-09T18:15:38.260Z,46.67
2018-08-09T18:18:09.631Z,46.56
2018-08-09T18:20:41.474Z,45.97
2018-08-09T18:23:12.801Z,46.08
2018-08-09T18:25:44.156Z,45.66
2018-08-09T18:28:15.495Z,45.66
2018-08-09T18:30:46.829Z,45.86
2018-08-09T18:33:18.180Z,45.57
2018-08-09T18:35:49.755Z,45.54
2018-08-09T18:38:21.182Z,45.04
2018-08-09T18:40:52.507Z,44.95
2018-08-09T18:43:23.880Z,45.18
2018-08-09T18:45:56.410Z,44.48
2018-08-09T18:48:27.667Z,44.45
2018-08-09T18:50:59.035Z,44.19
2018-08-09T18:53:30.657Z,44.93
2018-08-09T18:56:01.907Z,44.46
2018-08-09T18:58:33.228Z,44.42
2018-08-09T19:01:04.572Z,44.02
2018-08-09T19:03:35.865Z,44.14
2018-08-09T19:06:12.335Z,43.63
2018-08-09T19:08:43.839Z,43.72
2018-08-09T19:11:15.260Z,43.84
2018-08-09T19:13:46.609Z,44.35
2018-08-09T19:16:17.948Z,44.44
2018-08-09T19:18:49.310Z,44.16
2018-08-09T19:21:20.628Z,44.53
2018-08-09T19:23:52.013Z,44.85
2018-08-09T19:26:23.344Z,44.90
2018-08-09T19:28:54.691Z,44.59
2018-08-09T19:31:26.315Z,44.89
2018-08-09T19:33:58.117Z,44.98
2018-08-09T19:36:29.594Z,45.55
2018-08-09T19:39:01.016Z,45.38
2018-08-09T19:41:32.343Z,44.76
2018-08-09T19:44:03.742Z,44.62
2018-08-09T19:46:35.244Z,44.58
2018-08-09T19:49:06.765Z,44.14
2018-08-09T19:51:38.299Z,44.38
2018-08-09T19:54:10.512Z,44.27
2018-08-09T19:56:41.768Z,44.86
2018-08-09T19:59:13.251Z,44.63
2018-08-09T20:01:44.651Z,44.09
2018-08-09T20:04:16.060Z,44.31
2018-08-09T20:06:47.379Z,43.96
2018-08-09T20:09:18.746Z,43.70
2018-08-09T20:11:50.055Z,43.71
2018-08-09T20:14:21.573Z,43.89
2018-08-09T20:16:52.901Z,44.14
2018-08-09T20:19:24.293Z,43.53
2018-08-09T20:21:55.588Z,43.84
2018-08-09T20:24:26.892Z,43.97
2018-08-09T20:26:58.188Z,43.67
2018-08-09T20:29:29.552Z,43.72
2018-08-09T20:32:00.884Z,43.97
2018-08-09T20:34:32.335Z,43.67
2018-08-09T20:37:04.324Z,43.50
2018-08-09T20:39:35.724Z,43.14
2018-08-09T20:42:07.121Z,42.86
2018-08-09T20:44:38.470Z,43.49
